sensor_id;sensor_type;location;lat;lon;timestamp;temperature;humidity
15156;DHT22;7678;50.058;8.306;2024-03-23T00:55:12;8.60;99.90
15156;DHT22;7678;50.058;8.306;2024-03-23T00:57:39;8.60;99.90
15156;DHT22;7678;50.058;8.306;2024-03-23T01:00:06;8.50;99.90
15156;DHT22;7678;50.058;8.306;2024-03-23T01:02:36;8.50;99.90
15156;DHT22;7678;50.058;8.306;2024-03-23T01:05:03;8.50;99.90
15156;DHT22;7678;50.058;8.306;2024-03-23T01:07:29;8.60;99.90
15156;DHT22;7678;50.058;8.306;2024-03-23T01:09:57;8.60;99.90
15156;DHT22;7678;50.058;8.306;2024-03-23T01:12:24;8.70;99.90
15156;DHT22;7678;50.058;8.306;2024-03-23T01:14:51;8.70;99.90
15156;DHT22;7678;50.058;8.306;2024-03-23T01:17:17;8.60;99.90
15156;DHT22;7678;50.058;8.306;2024-03-23T01:19:44;8.60;99.90
15156;DHT22;7678;50.058;8.306;2024-03-23T01:22:10;8.70;99.90
15156;DHT22;7678;50.058;8.306;2024-03-23T01:24:38;8.70;99.90
15156;DHT22;7678;50.058;8.306;2024-03-23T01:27:04;8.70;99.90
15156;DHT22;7678;50.058;8.306;2024-03-23T01:29:32;8.60;99.90
15156;DHT22;7678;50.058;8.306;2024-03-23T01:31:59;8.60;99.90
15156;DHT22;7678;50.058;8.306;2024-03-23T01:34:26;8.60;99.90
15156;DHT22;7678;50.058;8.306;2024-03-23T01:36:53;8.60;99.90
15156;DHT22;7678;50.058;8.306;2024-03-23T01:39:21;8.50;99.90
15156;DHT22;7678;50.058;8.306;2024-03-23T01:41:47;8.50;99.90
15156;DHT22;7678;50.058;8.306;2024-03-23T01:44:14;8.50;99.90
15156;DHT22;7678;50.058;8.306;2024-03-23T01:46:41;8.30;99.90
15156;DHT22;7678;50.058;8.306;2024-03-23T01:49:08;8.00;99.90
15156;DHT22;7678;50.058;8.306;2024-03-23T01:51:36;7.90;99.90
15156;DHT22;7678;50.058;8.306;2024-03-23T01:54:06;8.10;99.90
15156;DHT22;7678;50.058;8.306;2024-03-23T01:56:33;8.20;99.90
15156;DHT22;7678;50.058;8.306;2024-03-23T01:59:02;8.20;99.90
15156;DHT22;7678;50.058;8.306;2024-03-23T02:01:29;8.30;99.90
15156;DHT22;7678;50.058;8.306;2024-03-23T02:03:56;8.30;99.90
15156;DHT22;7678;50.058;8.306;2024-03-23T02:06:24;8.40;99.90
15156;DHT22;7678;50.058;8.306;2024-03-23T02:08:51;8.40;99.90
15156;DHT22;7678;50.058;8.306;2024-03-23T02:11:17;8.50;99.90
15156;DHT22;7678;50.058;8.306;2024-03-23T02:13:44;8.60;99.90
15156;DHT22;7678;50.058;8.306;2024-03-23T02:16:11;8.70;99.90
15156;DHT22;7678;50.058;8.306;2024-03-23T02:18:38;8.70;99.90
15156;DHT22;7678;50.058;8.306;2024-03-23T02:21:06;8.70;99.90
15156;DHT22;7678;50.058;8.306;2024-03-23T02:23:33;8.60;99.90
15156;DHT22;7678;50.058;8.306;2024-03-23T02:25:59;8.60;99.90
15156;DHT22;7678;50.058;8.306;2024-03-23T02:28:26;8.50;99.90
15156;DHT22;7678;50.058;8.306;2024-03-23T02:30:52;8.50;99.90
15156;DHT22;7678;50.058;8.306;2024-03-23T02:33:19;8.60;99.90
15156;DHT22;7678;50.058;8.306;2024-03-23T02:35:45;8.60;99.90
15156;DHT22;7678;50.058;8.306;2024-03-23T02:38:12;8.60;99.90
15156;DHT22;7678;50.058;8.306;2024-03-23T02:40:40;8.60;99.90
15156;DHT22;7678;50.058;8.306;2024-03-23T02:43:06;8.70;99.90
15156;DHT22;7678;50.058;8.306;2024-03-23T02:45:32;8.70;99.90
15156;DHT22;7678;50.058;8.306;2024-03-23T02:48:00;8.70;99.90
15156;DHT22;7678;50.058;8.306;2024-03-23T02:50:25;8.80;99.90
15156;DHT22;7678;50.058;8.306;2024-03-23T02:52:52;8.70;99.90
15156;DHT22;7678;50.058;8.306;2024-03-23T02:55:19;8.80;99.90
15156;DHT22;7678;50.058;8.306;2024-03-23T02:57:46;8.90;99.90
15156;DHT22;7678;50.058;8.306;2024-03-23T03:00:12;8.80;99.90
15156;DHT22;7678;50.058;8.306;2024-03-23T03:02:40;8.70;99.90
15156;DHT22;7678;50.058;8.306;2024-03-23T03:05:06;8.60;99.90
15156;DHT22;7678;50.058;8.306;2024-03-23T03:07:34;8.60;99.90
15156;DHT22;7678;50.058;8.306;2024-03-23T03:10:01;8.50;99.90
15156;DHT22;7678;50.058;8.306;2024-03-23T03:12:30;8.40;99.90
15156;DHT22;7678;50.058;8.306;2024-03-23T03:14:57;8.30;99.90
15156;DHT22;7678;50.058;8.306;2024-03-23T03:17:23;8.30;99.90
15156;DHT22;7678;50.058;8.306;2024-03-23T03:19:50;8.40;99.90
15156;DHT22;7678;50.058;8.306;2024-03-23T03:22:22;8.40;99.90
15156;DHT22;7678;50.058;8.306;2024-03-23T03:24:49;8.40;99.90
15156;DHT22;7678;50.058;8.306;2024-03-23T03:27:15;8.50;99.90
15156;DHT22;7678;50.058;8.306;2024-03-23T03:29:44;8.50;99.90
15156;DHT22;7678;50.058;8.306;2024-03-23T03:32:10;8.60;99.90
15156;DHT22;7678;50.058;8.306;2024-03-23T03:34:38;8.60;99.90
15156;DHT22;7678;50.058;8.306;2024-03-23T03:37:04;8.60;99.90
15156;DHT22;7678;50.058;8.306;2024-03-23T03:39:31;8.50;99.90
15156;DHT22;7678;50.058;8.306;2024-03-23T03:41:57;8.50;99.90
15156;DHT22;7678;50.058;8.306;2024-03-23T03:44:25;8.50;99.90
15156;DHT22;7678;50.058;8.306;2024-03-23T03:46:51;8.50;99.90
15156;DHT22;7678;50.058;8.306;2024-03-23T03:49:18;8.50;99.90
15156;DHT22;7678;50.058;8.306;2024-03-23T03:51:44;8.50;99.90
15156;DHT22;7678;50.058;8.306;2024-03-23T03:54:11;8.30;99.90
15156;DHT22;7678;50.058;8.306;2024-03-23T03:56:37;8.30;99.90
15156;DHT22;7678;50.058;8.306;2024-03-23T03:59:05;8.40;99.90
15156;DHT22;7678;50.058;8.306;2024-03-23T04:01:31;8.10;99.90
15156;DHT22;7678;50.058;8.306;2024-03-23T04:03:58;7.90;99.90
15156;DHT22;7678;50.058;8.306;2024-03-23T04:06:24;7.80;99.90
15156;DHT22;7678;50.058;8.306;2024-03-23T04:08:51;7.50;99.90
15156;DHT22;7678;50.058;8.306;2024-03-23T04:11:18;7.20;99.90
15156;DHT22;7678;50.058;8.306;2024-03-23T04:13:45;6.90;99.90
15156;DHT22;7678;50.058;8.306;2024-03-23T04:16:12;6.80;99.90
15156;DHT22;7678;50.058;8.306;2024-03-23T04:18:40;6.70;99.90
15156;DHT22;7678;50.058;8.306;2024-03-23T04:21:12;6.70;99.90
15156;DHT22;7678;50.058;8.306;2024-03-23T04:23:39;6.70;99.90
15156;DHT22;7678;50.058;8.306;2024-03-23T04:26:06;6.70;99.90
15156;DHT22;7678;50.058;8.306;2024-03-23T04:28:33;6.60;99.90
15156;DHT22;7678;50.058;8.306;2024-03-23T04:31:03;6.50;99.90
15156;DHT22;7678;50.058;8.306;2024-03-23T04:33:37;6.60;99.90
15156;DHT22;7678;50.058;8.306;2024-03-23T04:36:03;6.60;99.90
15156;DHT22;7678;50.058;8.306;2024-03-23T04:38:30;6.50;99.90
15156;DHT22;7678;50.058;8.306;2024-03-23T04:40:58;6.60;99.90
15156;DHT22;7678;50.058;8.306;2024-03-23T04:43:26;6.70;99.90
15156;DHT22;7678;50.058;8.306;2024-03-23T04:45:52;6.80;99.90
15156;DHT22;7678;50.058;8.306;2024-03-23T04:48:21;6.80;99.90
15156;DHT22;7678;50.058;8.306;2024-03-23T04:50:49;6.80;99.90
15156;DHT22;7678;50.058;8.306;2024-03-23T04:53:17;6.70;99.90
15156;DHT22;7678;50.058;8.306;2024-03-23T04:55:44;6.80;99.90
15156;DHT22;7678;50.058;8.306;2024-03-23T04:58:12;6.90;99.90
15156;DHT22;7678;50.058;8.306;2024-03-23T05:00:37;6.80;99.90
15156;DHT22;7678;50.058;8.306;2024-03-23T05:03:05;6.70;99.90
15156;DHT22;7678;50.058;8.306;2024-03-23T05:05:32;6.90;99.90
15156;DHT22;7678;50.058;8.306;2024-03-23T05:08:24;6.90;99.90
15156;DHT22;7678;50.058;8.306;2024-03-23T05:10:51;6.90;99.90
15156;DHT22;7678;50.058;8.306;2024-03-23T05:13:18;7.00;99.90
15156;DHT22;7678;50.058;8.306;2024-03-23T05:15:55;7.10;99.90
15156;DHT22;7678;50.058;8.306;2024-03-23T05:18:22;7.00;99.90
15156;DHT22;7678;50.058;8.306;2024-03-23T05:20:56;7.10;99.90
15156;DHT22;7678;50.058;8.306;2024-03-23T05:23:24;7.10;99.90
15156;DHT22;7678;50.058;8.306;2024-03-23T05:25:51;7.00;99.90
15156;DHT22;7678;50.058;8.306;2024-03-23T05:28:18;7.00;99.90
15156;DHT22;7678;50.058;8.306;2024-03-23T05:30:55;7.00;99.90
15156;DHT22;7678;50.058;8.306;2024-03-23T05:33:21;7.00;99.90
15156;DHT22;7678;50.058;8.306;2024-03-23T05:36:07;7.00;99.90
15156;DHT22;7678;50.058;8.306;2024-03-23T05:38:37;6.90;99.90
15156;DHT22;7678;50.058;8.306;2024-03-23T05:41:04;6.90;99.90
15156;DHT22;7678;50.058;8.306;2024-03-23T05:43:31;6.80;99.90
15156;DHT22;7678;50.058;8.306;2024-03-23T05:46:27;6.70;99.90
15156;DHT22;7678;50.058;8.306;2024-03-23T05:49:01;6.60;99.90
15156;DHT22;7678;50.058;8.306;2024-03-23T05:51:27;6.60;99.90
15156;DHT22;7678;50.058;8.306;2024-03-23T05:53:55;6.70;99.90
15156;DHT22;7678;50.058;8.306;2024-03-23T05:56:21;6.80;99.90
15156;DHT22;7678;50.058;8.306;2024-03-23T05:58:50;6.80;99.90
15156;DHT22;7678;50.058;8.306;2024-03-23T06:01:16;6.60;99.90
15156;DHT22;7678;50.058;8.306;2024-03-23T06:03:43;6.50;99.90
15156;DHT22;7678;50.058;8.306;2024-03-23T06:06:10;6.40;99.90
15156;DHT22;7678;50.058;8.306;2024-03-23T06:08:38;6.40;99.90
15156;DHT22;7678;50.058;8.306;2024-03-23T06:11:04;6.30;99.90
15156;DHT22;7678;50.058;8.306;2024-03-23T06:13:32;6.20;99.90
15156;DHT22;7678;50.058;8.306;2024-03-23T06:16:02;6.20;99.90
15156;DHT22;7678;50.058;8.306;2024-03-23T06:18:29;6.30;99.90
15156;DHT22;7678;50.058;8.306;2024-03-23T06:20:55;6.30;99.90
15156;DHT22;7678;50.058;8.306;2024-03-23T06:23:24;6.30;99.90
15156;DHT22;7678;50.058;8.306;2024-03-23T06:25:50;6.30;99.90
15156;DHT22;7678;50.058;8.306;2024-03-23T06:28:16;6.20;99.90
15156;DHT22;7678;50.058;8.306;2024-03-23T06:30:43;6.30;99.90
15156;DHT22;7678;50.058;8.306;2024-03-23T06:33:11;6.10;99.90
15156;DHT22;7678;50.058;8.306;2024-03-23T06:35:38;6.00;99.90
15156;DHT22;7678;50.058;8.306;2024-03-23T06:38:05;6.00;99.90
15156;DHT22;7678;50.058;8.306;2024-03-23T06:40:31;6.10;99.90
15156;DHT22;7678;50.058;8.306;2024-03-23T06:42:58;6.10;99.90
15156;DHT22;7678;50.058;8.306;2024-03-23T06:45:24;6.00;99.90
15156;DHT22;7678;50.058;8.306;2024-03-23T06:47:52;6.00;99.90
15156;DHT22;7678;50.058;8.306;2024-03-23T06:50:18;6.10;99.90
15156;DHT22;7678;50.058;8.306;2024-03-23T06:52:45;6.10;99.90
15156;DHT22;7678;50.058;8.306;2024-03-23T06:55:11;6.30;99.90
15156;DHT22;7678;50.058;8.306;2024-03-23T06:57:38;6.50;99.90
15156;DHT22;7678;50.058;8.306;2024-03-23T07:00:04;6.70;99.90
15156;DHT22;7678;50.058;8.306;2024-03-23T07:02:36;6.50;99.90
15156;DHT22;7678;50.058;8.306;2024-03-23T07:05:08;6.60;99.90
15156;DHT22;7678;50.058;8.306;2024-03-23T07:07:38;6.70;99.90
15156;DHT22;7678;50.058;8.306;2024-03-23T07:10:05;6.80;99.90
15156;DHT22;7678;50.058;8.306;2024-03-23T07:12:32;7.00;99.90
15156;DHT22;7678;50.058;8.306;2024-03-23T07:14:58;6.90;99.90
15156;DHT22;7678;50.058;8.306;2024-03-23T07:17:26;7.10;99.90
15156;DHT22;7678;50.058;8.306;2024-03-23T07:19:52;7.10;99.90
15156;DHT22;7678;50.058;8.306;2024-03-23T07:22:19;7.10;99.90
15156;DHT22;7678;50.058;8.306;2024-03-23T07:24:46;6.90;99.90
15156;DHT22;7678;50.058;8.306;2024-03-23T07:27:15;6.90;99.90
15156;DHT22;7678;50.058;8.306;2024-03-23T07:29:41;6.90;99.90
15156;DHT22;7678;50.058;8.306;2024-03-23T07:32:08;6.80;99.90
15156;DHT22;7678;50.058;8.306;2024-03-23T07:34:36;7.00;99.90
15156;DHT22;7678;50.058;8.306;2024-03-23T07:37:03;6.90;99.90
15156;DHT22;7678;50.058;8.306;2024-03-23T07:39:29;6.90;99.90
15156;DHT22;7678;50.058;8.306;2024-03-23T07:41:58;7.00;99.90
15156;DHT22;7678;50.058;8.306;2024-03-23T07:44:24;7.10;99.90
15156;DHT22;7678;50.058;8.306;2024-03-23T07:46:51;7.30;99.90
15156;DHT22;7678;50.058;8.306;2024-03-23T07:49:17;7.50;99.90
15156;DHT22;7678;50.058;8.306;2024-03-23T07:51:45;7.80;99.90
15156;DHT22;7678;50.058;8.306;2024-03-23T07:54:11;7.50;99.90
15156;DHT22;7678;50.058;8.306;2024-03-23T07:56:38;7.60;99.90
15156;DHT22;7678;50.058;8.306;2024-03-23T07:59:05;7.60;99.90
15156;DHT22;7678;50.058;8.306;2024-03-23T08:01:32;7.80;99.90
15156;DHT22;7678;50.058;8.306;2024-03-23T08:03:58;8.00;99.90
15156;DHT22;7678;50.058;8.306;2024-03-23T08:06:25;8.10;99.90
15156;DHT22;7678;50.058;8.306;2024-03-23T08:08:54;7.80;99.90
15156;DHT22;7678;50.058;8.306;2024-03-23T08:11:30;7.80;99.90
15156;DHT22;7678;50.058;8.306;2024-03-23T08:13:57;7.70;99.90
15156;DHT22;7678;50.058;8.306;2024-03-23T08:16:24;7.60;99.90
15156;DHT22;7678;50.058;8.306;2024-03-23T08:18:54;7.70;99.90
15156;DHT22;7678;50.058;8.306;2024-03-23T08:21:22;7.90;99.90
15156;DHT22;7678;50.058;8.306;2024-03-23T08:23:48;8.10;99.90
15156;DHT22;7678;50.058;8.306;2024-03-23T08:26:16;8.10;99.90
15156;DHT22;7678;50.058;8.306;2024-03-23T08:28:43;8.30;99.90
15156;DHT22;7678;50.058;8.306;2024-03-23T08:31:12;8.40;99.90
15156;DHT22;7678;50.058;8.306;2024-03-23T08:33:38;8.40;99.90
15156;DHT22;7678;50.058;8.306;2024-03-23T08:36:07;8.60;99.90
15156;DHT22;7678;50.058;8.306;2024-03-23T08:38:33;8.70;99.90
15156;DHT22;7678;50.058;8.306;2024-03-23T08:41:06;8.50;99.90
15156;DHT22;7678;50.058;8.306;2024-03-23T08:43:35;8.40;99.90
15156;DHT22;7678;50.058;8.306;2024-03-23T08:46:07;8.30;99.90
15156;DHT22;7678;50.058;8.306;2024-03-23T08:48:35;8.10;99.90
15156;DHT22;7678;50.058;8.306;2024-03-23T08:51:07;8.40;99.90
15156;DHT22;7678;50.058;8.306;2024-03-23T08:53:34;8.80;99.90
15156;DHT22;7678;50.058;8.306;2024-03-23T08:56:03;8.70;99.90
15156;DHT22;7678;50.058;8.306;2024-03-23T08:58:30;8.70;99.90
15156;DHT22;7678;50.058;8.306;2024-03-23T09:01:08;8.20;99.90
15156;DHT22;7678;50.058;8.306;2024-03-23T09:03:35;8.30;99.90
15156;DHT22;7678;50.058;8.306;2024-03-23T09:06:10;8.60;99.90
15156;DHT22;7678;50.058;8.306;2024-03-23T09:08:36;8.60;99.90
15156;DHT22;7678;50.058;8.306;2024-03-23T09:11:06;8.40;99.90
15156;DHT22;7678;50.058;8.306;2024-03-23T09:13:36;8.50;99.90
15156;DHT22;7678;50.058;8.306;2024-03-23T09:16:04;8.40;99.90
15156;DHT22;7678;50.058;8.306;2024-03-23T09:18:37;8.50;99.90
15156;DHT22;7678;50.058;8.306;2024-03-23T09:21:11;8.80;98.20
15156;DHT22;7678;50.058;8.306;2024-03-23T09:30:40;9.90;92.00
15156;DHT22;7678;50.058;8.306;2024-03-23T09:33:09;10.00;91.90
15156;DHT22;7678;50.058;8.306;2024-03-23T09:35:40;9.90;90.80
15156;DHT22;7678;50.058;8.306;2024-03-23T09:38:08;9.80;92.00
15156;DHT22;7678;50.058;8.306;2024-03-23T09:40:41;9.40;80.80
15156;DHT22;7678;50.058;8.306;2024-03-23T09:43:09;9.30;80.20
15156;DHT22;7678;50.058;8.306;2024-03-23T09:45:40;9.20;80.70
15156;DHT22;7678;50.058;8.306;2024-03-23T09:48:08;9.30;80.00
15156;DHT22;7678;50.058;8.306;2024-03-23T09:50:39;9.10;80.10
15156;DHT22;7678;50.058;8.306;2024-03-23T09:53:13;8.90;77.20
15156;DHT22;7678;50.058;8.306;2024-03-23T09:55:44;8.90;75.00
15156;DHT22;7678;50.058;8.306;2024-03-23T09:58:13;8.80;73.30
15156;DHT22;7678;50.058;8.306;2024-03-23T10:00:39;8.90;74.00
15156;DHT22;7678;50.058;8.306;2024-03-23T10:03:06;8.90;73.20
15156;DHT22;7678;50.058;8.306;2024-03-23T10:05:33;9.10;75.10
15156;DHT22;7678;50.058;8.306;2024-03-23T10:08:17;9.30;72.00
15156;DHT22;7678;50.058;8.306;2024-03-23T10:10:45;9.30;72.70
15156;DHT22;7678;50.058;8.306;2024-03-23T10:13:24;9.40;73.20
15156;DHT22;7678;50.058;8.306;2024-03-23T10:15:55;9.30;71.70
15156;DHT22;7678;50.058;8.306;2024-03-23T10:18:23;9.40;72.70
15156;DHT22;7678;50.058;8.306;2024-03-23T10:21:10;9.30;72.50
15156;DHT22;7678;50.058;8.306;2024-03-23T10:23:39;9.50;75.50
15156;DHT22;7678;50.058;8.306;2024-03-23T10:26:23;9.50;75.10
15156;DHT22;7678;50.058;8.306;2024-03-23T10:31:17;8.60;75.00
15156;DHT22;7678;50.058;8.306;2024-03-23T10:33:48;6.80;99.90
15156;DHT22;7678;50.058;8.306;2024-03-23T10:36:14;6.30;99.90
15156;DHT22;7678;50.058;8.306;2024-03-23T10:38:42;6.20;99.90
15156;DHT22;7678;50.058;8.306;2024-03-23T10:41:09;6.20;99.90
15156;DHT22;7678;50.058;8.306;2024-03-23T10:43:37;6.40;99.90
15156;DHT22;7678;50.058;8.306;2024-03-23T10:46:04;6.80;99.90
15156;DHT22;7678;50.058;8.306;2024-03-23T10:48:32;7.00;99.90
15156;DHT22;7678;50.058;8.306;2024-03-23T10:50:59;7.10;99.90
15156;DHT22;7678;50.058;8.306;2024-03-23T10:53:27;7.30;99.90
15156;DHT22;7678;50.058;8.306;2024-03-23T10:55:55;7.50;99.90
15156;DHT22;7678;50.058;8.306;2024-03-23T10:58:47;7.60;99.90
15156;DHT22;7678;50.058;8.306;2024-03-23T11:01:12;7.80;99.90
15156;DHT22;7678;50.058;8.306;2024-03-23T11:03:45;7.90;99.90
15156;DHT22;7678;50.058;8.306;2024-03-23T11:06:35;7.70;99.90
15156;DHT22;7678;50.058;8.306;2024-03-23T11:09:02;7.70;99.90
15156;DHT22;7678;50.058;8.306;2024-03-23T11:11:29;7.80;99.90
15156;DHT22;7678;50.058;8.306;2024-03-23T11:13:59;7.90;99.90
15156;DHT22;7678;50.058;8.306;2024-03-23T11:16:26;7.90;99.90
15156;DHT22;7678;50.058;8.306;2024-03-23T11:19:34;8.00;99.90
15156;DHT22;7678;50.058;8.306;2024-03-23T11:22:01;7.90;99.90
15156;DHT22;7678;50.058;8.306;2024-03-23T11:24:30;8.00;99.90
15156;DHT22;7678;50.058;8.306;2024-03-23T11:26:56;8.00;99.90
15156;DHT22;7678;50.058;8.306;2024-03-23T11:29:27;8.10;99.90
15156;DHT22;7678;50.058;8.306;2024-03-23T11:31:55;8.50;99.90
15156;DHT22;7678;50.058;8.306;2024-03-23T11:34:23;8.50;99.90
15156;DHT22;7678;50.058;8.306;2024-03-23T11:36:50;8.70;99.90
15156;DHT22;7678;50.058;8.306;2024-03-23T11:39:29;8.70;99.90
15156;DHT22;7678;50.058;8.306;2024-03-23T11:41:56;8.80;97.80
15156;DHT22;7678;50.058;8.306;2024-03-23T11:44:26;8.60;99.80
15156;DHT22;7678;50.058;8.306;2024-03-23T11:46:53;8.90;97.20
15156;DHT22;7678;50.058;8.306;2024-03-23T11:51:51;9.20;93.10
15156;DHT22;7678;50.058;8.306;2024-03-23T11:54:21;9.30;94.10
15156;DHT22;7678;50.058;8.306;2024-03-23T11:57:04;9.70;92.90
15156;DHT22;7678;50.058;8.306;2024-03-23T11:59:39;9.80;89.60
15156;DHT22;7678;50.058;8.306;2024-03-23T12:02:07;10.00;84.80
15156;DHT22;7678;50.058;8.306;2024-03-23T12:04:34;9.80;85.50
15156;DHT22;7678;50.058;8.306;2024-03-23T12:09:41;10.40;77.80
15156;DHT22;7678;50.058;8.306;2024-03-23T12:12:14;10.70;77.20
15156;DHT22;7678;50.058;8.306;2024-03-23T12:15:00;10.80;74.20
15156;DHT22;7678;50.058;8.306;2024-03-23T12:17:27;10.90;72.80
15156;DHT22;7678;50.058;8.306;2024-03-23T12:19:54;11.10;69.60
15156;DHT22;7678;50.058;8.306;2024-03-23T12:22:21;11.20;71.70
15156;DHT22;7678;50.058;8.306;2024-03-23T12:24:49;11.10;69.70
15156;DHT22;7678;50.058;8.306;2024-03-23T12:27:15;11.00;68.50
15156;DHT22;7678;50.058;8.306;2024-03-23T12:29:42;11.30;66.20
15156;DHT22;7678;50.058;8.306;2024-03-23T12:32:09;11.50;66.70
15156;DHT22;7678;50.058;8.306;2024-03-23T12:34:36;11.70;63.20
15156;DHT22;7678;50.058;8.306;2024-03-23T12:37:02;12.00;60.30
15156;DHT22;7678;50.058;8.306;2024-03-23T12:39:29;12.20;58.70
15156;DHT22;7678;50.058;8.306;2024-03-23T12:41:56;12.40;56.60
15156;DHT22;7678;50.058;8.306;2024-03-23T12:44:23;12.00;54.60
15156;DHT22;7678;50.058;8.306;2024-03-23T12:46:49;11.70;55.30
15156;DHT22;7678;50.058;8.306;2024-03-23T12:49:16;11.40;54.60
15156;DHT22;7678;50.058;8.306;2024-03-23T12:51:52;10.20;58.90
15156;DHT22;7678;50.058;8.306;2024-03-23T12:54:20;9.20;72.20
15156;DHT22;7678;50.058;8.306;2024-03-23T12:56:47;8.30;92.10
15156;DHT22;7678;50.058;8.306;2024-03-23T12:59:14;7.60;99.90
15156;DHT22;7678;50.058;8.306;2024-03-23T13:01:40;6.30;99.90
15156;DHT22;7678;50.058;8.306;2024-03-23T13:04:13;5.80;99.90
15156;DHT22;7678;50.058;8.306;2024-03-23T13:06:40;5.80;99.90
15156;DHT22;7678;50.058;8.306;2024-03-23T13:09:08;6.10;99.90
15156;DHT22;7678;50.058;8.306;2024-03-23T13:11:34;6.40;99.90
15156;DHT22;7678;50.058;8.306;2024-03-23T13:14:01;6.90;99.90
15156;DHT22;7678;50.058;8.306;2024-03-23T13:16:29;7.10;99.90
15156;DHT22;7678;50.058;8.306;2024-03-23T13:18:56;7.00;99.90
15156;DHT22;7678;50.058;8.306;2024-03-23T13:21:22;7.00;99.90
15156;DHT22;7678;50.058;8.306;2024-03-23T13:23:49;7.00;99.90
15156;DHT22;7678;50.058;8.306;2024-03-23T13:26:16;7.50;99.90
15156;DHT22;7678;50.058;8.306;2024-03-23T13:28:43;7.80;99.90
15156;DHT22;7678;50.058;8.306;2024-03-23T13:31:10;7.90;99.90
15156;DHT22;7678;50.058;8.306;2024-03-23T13:33:37;8.00;99.90
15156;DHT22;7678;50.058;8.306;2024-03-23T13:36:03;8.30;99.90
15156;DHT22;7678;50.058;8.306;2024-03-23T13:38:31;8.50;99.90
15156;DHT22;7678;50.058;8.306;2024-03-23T13:41:00;8.50;99.90
15156;DHT22;7678;50.058;8.306;2024-03-23T13:43:27;8.90;99.90
15156;DHT22;7678;50.058;8.306;2024-03-23T13:45:55;9.30;99.90
15156;DHT22;7678;50.058;8.306;2024-03-23T13:48:24;8.90;99.90
15156;DHT22;7678;50.058;8.306;2024-03-23T13:51:04;9.00;99.90
15156;DHT22;7678;50.058;8.306;2024-03-23T13:53:31;9.00;99.90
15156;DHT22;7678;50.058;8.306;2024-03-23T13:55:58;9.00;99.90
15156;DHT22;7678;50.058;8.306;2024-03-23T13:58:25;9.20;99.90
15156;DHT22;7678;50.058;8.306;2024-03-23T14:00:52;9.00;99.90
15156;DHT22;7678;50.058;8.306;2024-03-23T14:03:19;9.10;99.90
15156;DHT22;7678;50.058;8.306;2024-03-23T14:05:45;8.80;99.90
15156;DHT22;7678;50.058;8.306;2024-03-23T14:08:13;9.00;99.90
15156;DHT22;7678;50.058;8.306;2024-03-23T14:10:42;9.40;99.90
15156;DHT22;7678;50.058;8.306;2024-03-23T14:13:10;9.20;99.90
15156;DHT22;7678;50.058;8.306;2024-03-23T14:15:36;8.70;99.90
15156;DHT22;7678;50.058;8.306;2024-03-23T14:18:03;8.40;99.90
15156;DHT22;7678;50.058;8.306;2024-03-23T14:20:29;8.30;99.90
15156;DHT22;7678;50.058;8.306;2024-03-23T14:22:56;8.50;99.90
15156;DHT22;7678;50.058;8.306;2024-03-23T14:25:22;8.80;99.90
15156;DHT22;7678;50.058;8.306;2024-03-23T14:27:53;9.10;99.90
15156;DHT22;7678;50.058;8.306;2024-03-23T14:30:19;9.40;99.90
15156;DHT22;7678;50.058;8.306;2024-03-23T14:32:46;10.10;99.90
15156;DHT22;7678;50.058;8.306;2024-03-23T14:35:12;10.30;96.00
15156;DHT22;7678;50.058;8.306;2024-03-23T14:37:39;9.90;88.80
15156;DHT22;7678;50.058;8.306;2024-03-23T14:40:06;9.90;92.90
15156;DHT22;7678;50.058;8.306;2024-03-23T14:42:33;10.40;93.60
15156;DHT22;7678;50.058;8.306;2024-03-23T14:44:59;10.50;89.10
15156;DHT22;7678;50.058;8.306;2024-03-23T15:22:25;9.10;66.30
15156;DHT22;7678;50.058;8.306;2024-03-23T15:24:52;7.20;88.10
15156;DHT22;7678;50.058;8.306;2024-03-23T15:27:19;6.80;98.60
15156;DHT22;7678;50.058;8.306;2024-03-23T15:29:46;6.40;99.90
15156;DHT22;7678;50.058;8.306;2024-03-23T15:32:12;6.10;99.90
15156;DHT22;7678;50.058;8.306;2024-03-23T15:34:43;6.10;99.90
15156;DHT22;7678;50.058;8.306;2024-03-23T15:37:09;6.10;99.90
15156;DHT22;7678;50.058;8.306;2024-03-23T15:39:36;6.30;99.90
15156;DHT22;7678;50.058;8.306;2024-03-23T15:42:02;7.00;99.90
15156;DHT22;7678;50.058;8.306;2024-03-23T15:44:32;7.00;99.90
15156;DHT22;7678;50.058;8.306;2024-03-23T15:47:00;7.10;99.90
15156;DHT22;7678;50.058;8.306;2024-03-23T15:49:29;6.80;99.90
15156;DHT22;7678;50.058;8.306;2024-03-23T15:51:55;6.60;99.90
15156;DHT22;7678;50.058;8.306;2024-03-23T15:54:23;6.40;99.90
15156;DHT22;7678;50.058;8.306;2024-03-23T15:56:49;6.40;99.90
15156;DHT22;7678;50.058;8.306;2024-03-23T15:59:16;6.30;99.90
15156;DHT22;7678;50.058;8.306;2024-03-23T16:01:42;6.50;99.90
15156;DHT22;7678;50.058;8.306;2024-03-23T16:04:09;6.60;99.90
15156;DHT22;7678;50.058;8.306;2024-03-23T16:06:35;7.00;99.90
15156;DHT22;7678;50.058;8.306;2024-03-23T16:09:06;6.90;99.90
15156;DHT22;7678;50.058;8.306;2024-03-23T16:11:34;7.40;99.90
15156;DHT22;7678;50.058;8.306;2024-03-23T16:14:00;7.30;99.90
15156;DHT22;7678;50.058;8.306;2024-03-23T16:16:28;7.40;99.90
15156;DHT22;7678;50.058;8.306;2024-03-23T16:18:55;7.60;99.90
15156;DHT22;7678;50.058;8.306;2024-03-23T16:21:20;7.60;99.90
15156;DHT22;7678;50.058;8.306;2024-03-23T16:23:47;7.50;99.90
15156;DHT22;7678;50.058;8.306;2024-03-23T16:26:13;7.60;99.90
15156;DHT22;7678;50.058;8.306;2024-03-23T16:28:42;7.70;99.90
15156;DHT22;7678;50.058;8.306;2024-03-23T16:31:09;7.80;99.90
15156;DHT22;7678;50.058;8.306;2024-03-23T16:33:37;7.80;99.90
15156;DHT22;7678;50.058;8.306;2024-03-23T16:36:08;7.90;99.90
15156;DHT22;7678;50.058;8.306;2024-03-23T16:38:37;7.90;99.90
15156;DHT22;7678;50.058;8.306;2024-03-23T16:41:08;8.00;98.80
15156;DHT22;7678;50.058;8.306;2024-03-23T16:43:36;8.20;99.40
15156;DHT22;7678;50.058;8.306;2024-03-23T16:46:10;8.10;93.60
15156;DHT22;7678;50.058;8.306;2024-03-23T16:48:37;8.00;92.90
15156;DHT22;7678;50.058;8.306;2024-03-23T16:51:06;8.10;92.10
15156;DHT22;7678;50.058;8.306;2024-03-23T16:53:33;8.00;93.80
15156;DHT22;7678;50.058;8.306;2024-03-23T16:56:04;7.90;93.60
15156;DHT22;7678;50.058;8.306;2024-03-23T16:58:36;7.90;96.20
15156;DHT22;7678;50.058;8.306;2024-03-23T17:01:24;7.80;94.00
15156;DHT22;7678;50.058;8.306;2024-03-23T17:03:52;7.80;95.30
15156;DHT22;7678;50.058;8.306;2024-03-23T17:06:20;7.80;94.10
15156;DHT22;7678;50.058;8.306;2024-03-23T17:08:48;7.70;95.30
15156;DHT22;7678;50.058;8.306;2024-03-23T17:11:15;7.60;93.00
15156;DHT22;7678;50.058;8.306;2024-03-23T17:13:43;7.60;96.00
15156;DHT22;7678;50.058;8.306;2024-03-23T17:16:10;7.50;98.00
15156;DHT22;7678;50.058;8.306;2024-03-23T17:18:36;7.50;98.30
15156;DHT22;7678;50.058;8.306;2024-03-23T17:21:04;7.50;96.50
15156;DHT22;7678;50.058;8.306;2024-03-23T17:23:30;7.50;94.30
15156;DHT22;7678;50.058;8.306;2024-03-23T17:25:57;7.50;94.80
15156;DHT22;7678;50.058;8.306;2024-03-23T17:28:25;7.40;93.60
15156;DHT22;7678;50.058;8.306;2024-03-23T17:30:52;7.40;94.70
15156;DHT22;7678;50.058;8.306;2024-03-23T17:33:18;7.40;92.70
15156;DHT22;7678;50.058;8.306;2024-03-23T17:35:49;7.00;98.00
15156;DHT22;7678;50.058;8.306;2024-03-23T17:38:16;5.60;99.90
15156;DHT22;7678;50.058;8.306;2024-03-23T17:40:44;5.10;99.90
15156;DHT22;7678;50.058;8.306;2024-03-23T17:43:10;5.00;99.90
15156;DHT22;7678;50.058;8.306;2024-03-23T17:45:37;4.90;99.90
15156;DHT22;7678;50.058;8.306;2024-03-23T17:48:04;5.00;99.90
15156;DHT22;7678;50.058;8.306;2024-03-23T17:50:31;5.10;99.90